Time;durP1;ratioP1;P1;durP2;ratioP2;P2;SDS_P1;SDS_P2;PMS_P1;PMS_P2;Temp;Humidity;BMP_temperature;BMP_pressure;BME280_temperature;BME280_humidity;BME280_pressure;Samples;Min_cycle;Max_cycle;Signal;HPM_P1;HPM_P2
2022/12/27 00:02:29;;;;;;;2.90;2.80;;;;;;;1.15;100.00;101868.25;6013917;23;20015;-78
2022/12/27 00:05:00;;;;;;;2.80;2.70;;;;;;;1.07;100.00;101854.41;5991080;23;20023;-80
2022/12/27 00:07:55;;;;;;;3.42;3.33;;;;;;;1.77;100.00;101980.66;5958893;23;20058;-79
2022/12/27 00:10:26;;;;;;;3.75;3.42;;;;;;;0.36;100.00;101735.16;5991233;23;20154;-81
2022/12/27 00:13:03;;;;;;;2.90;2.80;;;;;;;0.76;100.00;101779.31;5999542;23;20029;-79
2022/12/27 00:15:55;;;;;;;2.90;2.80;;;;;;;1.88;100.00;101978.13;6002028;23;20030;-79
2022/12/27 00:18:46;;;;;;;3.15;2.95;;;;;;;1.99;100.00;101973.84;5981133;23;20031;-77
2022/12/27 00:21:29;;;;;;;3.75;3.17;;;;;;;1.92;100.00;101972.09;6017151;23;20067;-79
2022/12/27 00:24:02;;;;;;;2.63;2.53;;;;;;;1.74;100.00;101943.53;5994050;23;20354;-78
2022/12/27 00:26:42;;;;;;;2.97;2.88;;;;;;;0.63;100.00;101750.81;6020422;23;20043;-80
2022/12/27 00:29:18;;;;;;;3.65;3.45;;;;;;;1.62;100.00;101908.13;6052601;23;20017;-78
2022/12/27 00:32:27;;;;;;;;;;;;;;;;;;;;;
2022/12/27 00:35:18;;;;;;;2.88;2.78;;;;;;;2.10;100.00;101983.38;6140547;23;20026;-79
2022/12/27 00:37:52;;;;;;;2.78;2.67;;;;;;;1.05;100.00;101812.19;6066683;23;20045;-80
2022/12/27 00:40:29;;;;;;;3.00;2.80;;;;;;;1.80;100.00;101953.91;6105906;23;20579;-78
2022/12/27 00:42:59;;;;;;;2.80;2.70;;;;;;;1.77;100.00;101933.22;6085967;23;20022;-77
2022/12/27 00:45:25;;;;;;;3.22;3.13;;;;;;;1.66;100.00;101934.88;6136348;23;20025;-80
2022/12/27 00:48:19;;;;;;;2.80;2.70;;;;;;;2.05;100.00;101979.94;6072067;23;20021;-80
2022/12/27 00:50:54;;;;;;;2.90;2.80;;;;;;;0.28;100.00;101711.00;6056023;23;20090;-80
2022/12/27 00:53:29;;;;;;;2.75;2.65;;;;;;;1.48;100.00;101868.41;6086848;23;20315;-81
2022/12/27 00:55:58;;;;;;;3.03;2.92;;;;;;;2.16;100.00;101989.44;6111165;23;20029;-81
2022/12/27 00:58:33;;;;;;;3.50;3.30;;;;;;;2.23;100.00;101995.53;6077447;23;20037;-81
2022/12/27 01:01:18;;;;;;;3.40;3.20;;;;;;;0.60;100.00;101720.63;6118688;23;20037;-80
2022/12/27 01:03:49;;;;;;;2.90;2.80;;;;;;;2.35;100.00;102005.91;6079237;23;20556;-79
2022/12/27 01:06:42;;;;;;;3.20;3.10;;;;;;;-1.37;100.00;101398.66;6112652;23;20282;-79
2022/12/27 01:09:18;;;;;;;3.13;3.03;;;;;;;2.19;100.00;102004.16;6085427;23;20032;-79
2022/12/27 01:11:50;;;;;;;3.10;3.00;;;;;;;2.22;100.00;101980.84;6118693;23;20052;-78
2022/12/27 01:14:23;;;;;;;2.70;2.60;;;;;;;0.86;100.00;101782.78;6088339;23;20443;-79
2022/12/27 01:16:53;;;;;;;2.80;2.70;;;;;;;1.39;100.00;101924.41;6107856;23;20518;-79
2022/12/27 01:19:19;;;;;;;2.97;2.85;;;;;;;1.62;100.00;101951.25;6080065;23;20027;-78
2022/12/27 01:21:54;;;;;;;2.95;2.85;;;;;;;1.66;100.00;101948.69;6135180;23;20459;-79
2022/12/27 01:24:26;;;;;;;3.75;3.53;;;;;;;0.94;100.00;101837.97;6081648;23;20025;-80
2022/12/27 01:26:53;;;;;;;3.13;3.03;;;;;;;1.59;100.00;101960.72;6129687;23;20092;-77
2022/12/27 01:29:22;;;;;;;2.92;2.75;;;;;;;-0.72;100.00;101552.91;6105497;23;20232;-79
2022/12/27 01:32:03;;;;;;;3.10;3.00;;;;;;;2.06;100.00;101989.41;6125013;23;20017;-81
2022/12/27 01:34:55;;;;;;;2.70;2.60;;;;;;;1.69;100.00;101937.50;6079422;23;20006;-78
2022/12/27 01:37:29;;;;;;;2.80;2.70;;;;;;;1.67;100.00;101923.69;6087862;23;20057;-79
2022/12/27 01:40:07;;;;;;;2.95;2.85;;;;;;;1.85;100.00;101964.31;6085422;23;20093;-79
2022/12/27 01:42:57;;;;;;;2.88;2.78;;;;;;;-1.87;100.00;101351.91;6121442;23;20171;-80
2022/12/27 01:45:39;;;;;;;3.50;3.30;;;;;;;2.12;100.00;102018.78;6077540;23;20028;-79
2022/12/27 01:48:40;;;;;;;2.78;2.67;;;;;;;1.77;100.00;101940.97;6077229;23;20014;-79
2022/12/27 01:51:43;;;;;;;3.63;3.35;;;;;;;2.15;100.00;101997.22;6078637;23;20033;-80
2022/12/27 01:54:32;;;;;;;2.80;2.70;;;;;;;1.80;100.00;101943.56;6036204;23;20633;-80
2022/12/27 01:57:31;;;;;;;3.08;2.97;;;;;;;1.56;100.00;101941.72;6101025;23;20026;-79
2022/12/27 02:00:02;;;;;;;3.00;2.90;;;;;;;2.18;100.00;102007.59;6131231;23;20364;-79
2022/12/27 02:06:32;;;;;;;;;;;;;;;;;;;;;
2022/12/27 02:09:31;;;;;;;;;;;;;;;2.02;100.00;102005.78;6083088;23;20010;-80
2022/12/27 02:12:17;;;;;;;2.70;2.60;;;;;;;1.42;100.00;101939.06;6095113;23;20039;-79
2022/12/27 02:18:00;;;;;;;2.95;2.85;;;;;;;1.64;100.00;101923.66;6125234;23;20037;-79
2022/12/27 02:20:48;;;;;;;7.07;3.33;;;;;;;1.09;100.00;101841.50;6073494;23;20109;-80
2022/12/27 02:24:12;;;;;;;2.65;2.55;;;;;;;2.12;100.00;102005.81;6107575;23;20084;-79
2022/12/27 02:27:29;;;;;;;2.92;2.83;;;;;;;2.25;100.00;102000.72;5955238;23;20032;-77
2022/12/27 02:30:09;;;;;;;2.92;2.83;;;;;;;-1.60;100.00;101360.72;5936108;23;20058;-79
2022/12/27 02:33:14;;;;;;;3.10;2.90;;;;;;;2.36;100.00;101997.28;5990944;23;20015;-80
2022/12/27 02:35:49;;;;;;;2.90;2.80;;;;;;;2.43;100.00;101997.31;5981244;23;20095;-79
2022/12/27 02:39:09;;;;;;;3.90;3.23;;;;;;;2.47;100.00;102006.81;6057564;23;20014;-79
2022/12/27 02:59:29;;;;;;;2.90;2.80;;;;;;;2.69;100.00;102018.97;6083858;23;20045;-79
2022/12/27 03:05:34;;;;;;;2.78;2.67;;;;;;;2.57;100.00;102022.38;6127711;23;20013;-78
2022/12/27 03:08:38;;;;;;;3.00;2.90;;;;;;;2.64;100.00;102012.88;6069163;23;20017;-78
2022/12/27 03:18:56;;;;;;;5.82;2.78;;;;;;;2.60;100.00;102032.75;6081291;23;20912;-80
2022/12/27 03:34:34;;;;;;;3.33;3.22;;;;;;;2.89;100.00;102054.44;6135820;23;20025;-78
2022/12/27 03:43:39;;;;;;;2.80;2.70;;;;;;;2.58;100.00;102002.50;6099498;23;20066;-79
2022/12/27 03:46:45;;;;;;;;;;;;;;;;;;;;;
2022/12/27 03:49:20;;;;;;;2.90;2.80;;;;;;;2.82;100.00;102035.38;6098864;23;20094;-80
2022/12/27 03:51:55;;;;;;;3.10;3.00;;;;;;;1.60;100.00;101842.56;6124642;23;20025;-79
2022/12/27 03:54:26;;;;;;;2.70;2.60;;;;;;;1.89;100.00;101870.28;6067458;23;20045;-80
2022/12/27 03:56:59;;;;;;;2.90;2.80;;;;;;;2.19;100.00;101922.13;6104227;23;20018;-79
2022/12/27 03:59:26;;;;;;;2.75;2.65;;;;;;;2.47;100.00;101971.41;6098936;23;20069;-79
2022/12/27 04:01:53;;;;;;;2.85;2.75;;;;;;;1.28;100.00;101776.06;6128156;23;20088;-80
2022/12/27 04:04:20;;;;;;;3.10;3.00;;;;;;;2.19;100.00;101908.31;6080505;23;20025;-79
2022/12/27 04:06:47;;;;;;;3.20;3.10;;;;;;;1.62;100.00;101806.34;6126343;23;20056;-78
2022/12/27 04:36:48;;;;;;;2.83;2.72;;;;;;;1.94;100.00;101957.44;6125953;23;20013;-78
2022/12/27 04:39:14;;;;;;;2.92;2.83;;;;;;;1.16;100.00;101801.88;6070381;23;20650;-80
2022/12/27 04:55:32;;;;;;;2.85;2.75;;;;;;;1.54;100.00;101884.84;6100510;23;20479;-79
2022/12/27 04:57:58;;;;;;;2.97;2.88;;;;;;;1.61;100.00;101884.84;6126214;23;20023;-79
2022/12/27 05:03:20;;;;;;;3.30;3.20;;;;;;;2.44;100.00;102001.63;6133491;23;20020;-79
2022/12/27 05:05:47;;;;;;;;;;;;;;;2.42;100.00;102003.34;6076318;23;20487;-79
2022/12/27 05:14:00;;;;;;;2.72;2.63;;;;;;;1.97;100.00;101969.53;6125772;23;20097;-77
2022/12/27 05:16:33;;;;;;;3.08;2.97;;;;;;;2.12;100.00;101985.13;6084262;23;20084;-79
2022/12/27 05:19:01;;;;;;;3.70;3.50;;;;;;;2.17;100.00;101956.66;6129433;23;20153;-79
2022/12/27 05:21:27;;;;;;;3.20;3.10;;;;;;;2.08;100.00;101907.44;6101940;23;20812;-79
2022/12/27 05:26:39;;;;;;;3.00;2.80;;;;;;;1.52;100.00;101808.06;6100546;23;20086;-78
2022/12/27 05:29:09;;;;;;;3.17;3.08;;;;;;;3.19;100.00;102056.19;6101999;23;20088;-78
2022/12/27 05:31:35;;;;;;;2.78;2.67;;;;;;;2.32;100.00;101894.50;6098361;23;20664;-77
2022/12/27 05:34:04;;;;;;;2.88;2.78;;;;;;;3.19;100.00;102049.25;6118042;23;20060;-77
2022/12/27 05:36:30;;;;;;;3.53;3.42;;;;;;;3.32;100.00;102067.41;6097121;23;20103;-78
2022/12/27 05:38:58;;;;;;;3.13;3.03;;;;;;;3.49;100.00;102067.41;6133928;23;20468;-79
2022/12/27 05:41:24;;;;;;;3.22;3.13;;;;;;;3.03;100.00;102007.75;6091549;23;20033;-80
2022/12/27 05:43:51;;;;;;;2.90;2.80;;;;;;;1.64;100.00;101779.63;6078514;23;20073;-78
2022/12/27 05:46:20;;;;;;;3.03;2.92;;;;;;;3.38;100.00;102078.66;6143977;23;20017;-80
2022/12/27 05:48:47;;;;;;;2.85;2.75;;;;;;;3.28;100.00;102056.16;6073136;23;20498;-80
2022/12/27 05:51:17;;;;;;;3.20;3.10;;;;;;;2.61;100.00;101974.03;6109640;23;20439;-79
2022/12/27 05:53:45;;;;;;;6.10;3.17;;;;;;;2.91;100.00;102021.59;6101476;23;20012;-80
2022/12/27 05:56:17;;;;;;;2.90;2.80;;;;;;;3.13;100.00;102085.56;6125355;23;20212;-81
2022/12/27 05:58:45;;;;;;;2.80;2.70;;;;;;;2.26;100.00;101955.81;6075015;23;20041;-80
2022/12/27 06:01:14;;;;;;;3.00;2.90;;;;;;;2.73;100.00;102064.75;6134620;23;20096;-80
2022/12/27 06:03:41;;;;;;;2.95;2.85;;;;;;;2.14;100.00;101969.59;6073494;23;20041;-80
2022/12/27 06:06:08;;;;;;;3.30;3.20;;;;;;;2.58;100.00;102051.75;6097494;23;20022;-80
2022/12/27 06:08:35;;;;;;;2.92;2.83;;;;;;;1.93;100.00;101950.53;6087024;23;20328;-80
2022/12/27 06:11:03;;;;;;;5.50;3.03;;;;;;;3.01;100.00;102088.16;6096471;23;20473;-80
2022/12/27 06:13:29;;;;;;;2.90;2.70;;;;;;;3.08;100.00;102105.44;6122270;23;20506;-79
2022/12/27 06:16:00;;;;;;;3.58;3.38;;;;;;;2.95;100.00;102120.13;6090915;23;20478;-80
2022/12/27 06:18:29;;;;;;;5.30;3.08;;;;;;;0.90;100.00;101779.38;6121862;23;20029;-80
2022/12/27 06:21:03;;;;;;;2.90;2.80;;;;;;;2.92;100.00;102122.69;6088845;23;20349;-80
2022/12/27 06:23:31;;;;;;;3.03;2.90;;;;;;;2.40;100.00;102076.72;6095371;23;20350;-79
2022/12/27 06:25:58;;;;;;;5.28;3.67;;;;;;;1.12;100.00;101849.25;6095115;23;20536;-80
2022/12/27 06:28:24;;;;;;;2.90;2.80;;;;;;;1.94;100.00;102006.63;6071927;23;20327;-78
2022/12/27 06:30:50;;;;;;;3.30;3.10;;;;;;;1.41;100.00;101908.03;6067908;23;20013;-78
2022/12/27 06:33:17;;;;;;;3.30;3.20;;;;;;;2.26;100.00;102067.19;6125672;23;20037;-78
2022/12/27 06:35:43;;;;;;;3.60;3.25;;;;;;;2.69;100.00;102109.69;6089498;23;20063;-79
2022/12/27 06:38:10;;;;;;;3.20;3.00;;;;;;;1.70;100.00;101955.59;6100904;23;20028;-80
2022/12/27 06:40:36;;;;;;;3.10;2.90;;;;;;;2.78;100.00;102107.09;6092910;23;20465;-78
2022/12/27 06:43:05;;;;;;;2.88;2.78;;;;;;;1.76;100.00;101931.47;6102587;23;20025;-78
2022/12/27 06:45:31;;;;;;;3.47;3.28;;;;;;;2.17;100.00;102022.25;6091504;23;20018;-78
2022/12/27 06:47:58;;;;;;;2.50;2.40;;;;;;;2.16;100.00;102020.50;6074313;23;20125;-78
2022/12/27 06:50:24;;;;;;;3.00;2.90;;;;;;;2.32;100.00;102034.41;6124875;23;20047;-80
2022/12/27 06:52:50;;;;;;;3.00;2.90;;;;;;;2.36;100.00;102043.91;6093555;23;20022;-77
2022/12/27 06:55:17;;;;;;;2.67;2.58;;;;;;;2.04;100.00;102020.47;6123372;23;20024;-78
2022/12/27 06:57:43;;;;;;;3.20;3.05;;;;;;;2.73;100.00;102133.91;6089307;23;20574;-78
2022/12/27 07:00:12;;;;;;;3.17;3.05;;;;;;;2.19;100.00;102012.78;6121521;23;20230;-77
2022/12/27 07:02:39;;;;;;;2.80;2.70;;;;;;;2.70;100.00;102114.00;6066782;23;20357;-77
2022/12/27 07:05:06;;;;;;;2.80;2.70;;;;;;;1.69;100.00;101966.81;6084944;23;20126;-78
2022/12/27 07:07:35;;;;;;;3.60;3.40;;;;;;;2.70;100.00;102121.75;6117971;23;20021;-78
2022/12/27 07:10:02;;;;;;;3.22;3.05;;;;;;;2.37;100.00;102104.38;6087223;23;20105;-78
2022/12/27 07:12:31;;;;;;;2.72;2.63;;;;;;;1.99;100.00;102032.53;6095033;23;20103;-77
2022/12/27 07:15:04;;;;;;;3.13;3.03;;;;;;;1.93;100.00;101994.53;6084235;23;20082;-79
2022/12/27 07:17:30;;;;;;;3.00;2.90;;;;;;;2.04;100.00;102051.53;6082966;23;20197;-78
2022/12/27 07:19:57;;;;;;;2.83;2.72;;;;;;;1.91;100.00;102009.19;6090868;23;20030;-80
2022/12/27 07:22:23;;;;;;;3.13;2.92;;;;;;;1.73;100.00;101973.75;6060010;23;20033;-78
2022/12/27 07:24:49;;;;;;;2.90;2.80;;;;;;;2.63;100.00;102139.91;6089595;23;20034;-78
2022/12/27 07:27:16;;;;;;;3.58;3.47;;;;;;;2.39;100.00;102100.94;6096301;23;20005;-78
2022/12/27 07:29:42;;;;;;;3.03;2.92;;;;;;;2.55;100.00;102143.31;6086853;23;20030;-77
2022/12/27 07:32:11;;;;;;;3.47;3.33;;;;;;;1.58;100.00;102010.75;6102220;23;20027;-77
2022/12/27 07:34:37;;;;;;;3.35;3.05;;;;;;;2.34;100.00;102123.34;6095046;23;20478;-78
2022/12/27 07:37:04;;;;;;;8.07;3.38;;;;;;;2.12;100.00;102087.84;6093514;23;20375;-78
2022/12/27 07:39:30;;;;;;;3.13;2.92;;;;;;;2.51;100.00;102157.13;6066292;23;20367;-82
2022/12/27 07:41:56;;;;;;;3.15;2.95;;;;;;;1.42;100.00;101945.97;6114582;23;20516;-79
2022/12/27 07:44:30;;;;;;;2.90;2.80;;;;;;;2.50;100.00;102147.59;6070220;23;20217;-79
2022/12/27 07:46:56;;;;;;;3.00;2.90;;;;;;;1.12;100.00;101888.94;6091855;23;20033;-79
2022/12/27 07:49:22;;;;;;;3.42;3.22;;;;;;;0.69;100.00;101836.94;6098327;23;20021;-79
2022/12/27 07:51:49;;;;;;;4.38;4.07;;;;;;;2.61;100.00;102145.06;6069116;23;20034;-80
2022/12/27 07:54:15;;;;;;;3.20;3.10;;;;;;;2.37;100.00;102133.72;6123119;23;20033;-81
2022/12/27 07:56:41;;;;;;;2.70;2.60;;;;;;;1.91;100.00;102066.16;6068754;23;20257;-80
2022/12/27 07:59:10;;;;;;;2.70;2.60;;;;;;;2.14;100.00;102110.28;6123947;23;20260;-78
2022/12/27 08:04:22;;;;;;;12.65;3.65;;;;;;;2.19;100.00;102110.34;6121647;23;20029;-81
2022/12/27 08:06:49;;;;;;;3.42;3.22;;;;;;;1.86;100.00;102079.94;6068154;23;20491;-81
2022/12/27 08:09:23;;;;;;;2.90;2.80;;;;;;;2.65;100.00;102159.78;6119672;23;20025;-79
2022/12/27 08:11:49;;;;;;;3.50;3.40;;;;;;;2.60;100.00;102156.28;6091540;23;20116;-81
2022/12/27 08:14:16;;;;;;;3.00;2.90;;;;;;;2.38;100.00;102138.03;6127249;23;20027;-81
2022/12/27 08:16:44;;;;;;;3.13;3.03;;;;;;;2.29;100.00;102109.53;6070269;23;20032;-81
2022/12/27 08:19:10;;;;;;;2.95;2.85;;;;;;;1.81;100.00;102037.63;6118319;23;20111;-80
2022/12/27 08:21:40;;;;;;;2.90;2.80;;;;;;;2.85;100.00;102174.56;6094138;23;20030;-81
2022/12/27 08:24:06;;;;;;;3.97;3.63;;;;;;;2.73;100.00;102139.94;6096700;23;20370;-80
2022/12/27 08:26:33;;;;;;;2.90;2.80;;;;;;;2.58;100.00;102147.63;6067400;23;20041;-79
2022/12/27 08:28:59;;;;;;;3.80;3.60;;;;;;;1.68;100.00;102026.31;6120689;23;20083;-80
2022/12/27 08:31:25;;;;;;;3.53;3.38;;;;;;;1.38;100.00;101920.09;6067235;23;20105;-79
2022/12/27 08:33:52;;;;;;;2.88;2.78;;;;;;;1.19;100.00;101889.81;6118767;23;20321;-79
2022/12/27 08:36:24;;;;;;;3.00;2.90;;;;;;;2.42;100.00;102081.06;6096279;23;20022;-80
2022/12/27 08:39:10;;;;;;;3.42;3.22;;;;;;;2.50;100.00;102110.47;6073469;23;20193;-80
2022/12/27 08:41:37;;;;;;;4.30;3.92;;;;;;;2.11;100.00;102096.47;6119814;23;20033;-79
2022/12/27 08:44:04;;;;;;;4.10;3.85;;;;;;;1.66;100.00;101950.41;6065993;23;20092;-81
2022/12/27 08:46:30;;;;;;;6.57;4.75;;;;;;;3.15;100.00;102186.75;6108508;23;20392;-80
2022/12/27 08:48:57;;;;;;;3.53;3.28;;;;;;;2.35;100.00;102051.69;6099512;23;20035;-79
2022/12/27 08:51:23;;;;;;;3.10;3.00;;;;;;;2.71;100.00;102100.19;6120409;23;20451;-78
2022/12/27 08:54:04;;;;;;;3.15;3.05;;;;;;;2.77;100.00;102118.34;6096696;23;20161;-80
2022/12/27 08:56:30;;;;;;;3.45;3.25;;;;;;;2.91;100.00;102127.91;6097369;23;20017;-80
2022/12/27 08:58:57;;;;;;;3.00;2.80;;;;;;;2.78;100.00;102120.06;6071809;23;20187;-80
2022/12/27 09:01:24;;;;;;;3.60;3.40;;;;;;;2.37;100.00;102032.69;6096775;23;20038;-79
2022/12/27 09:03:53;;;;;;;3.00;2.90;;;;;;;2.74;100.00;102100.19;6093309;23;20025;-81
2022/12/27 09:06:22;;;;;;;3.10;3.00;;;;;;;3.45;100.00;102191.13;6090429;23;20010;-78
2022/12/27 09:08:49;;;;;;;3.50;3.30;;;;;;;2.69;100.00;102069.94;6090032;23;20054;-80
2022/12/27 09:11:25;;;;;;;2.90;2.80;;;;;;;2.47;100.00;102024.97;6090873;23;20029;-78
2022/12/27 09:13:52;;;;;;;3.05;2.95;;;;;;;3.13;100.00;102123.63;6094886;23;20470;-77
2022/12/27 09:16:23;;;;;;;3.25;3.13;;;;;;;3.39;100.00;102153.06;6067616;23;20022;-79
2022/12/27 09:18:51;;;;;;;2.75;2.65;;;;;;;3.68;100.00;102183.34;6124501;23;20120;-77
2022/12/27 09:21:19;;;;;;;3.72;3.58;;;;;;;3.10;100.00;102077.78;6091539;23;20029;-80
2022/12/27 09:23:47;;;;;;;3.03;2.92;;;;;;;3.92;100.00;102211.03;6129759;23;20022;-79
2022/12/27 09:26:17;;;;;;;3.08;2.97;;;;;;;4.05;100.00;102219.72;6071186;23;20404;-78
2022/12/27 09:28:45;;;;;;;2.90;2.80;;;;;;;4.12;100.00;102217.97;6117363;23;20044;-80
2022/12/27 09:31:13;;;;;;;3.38;3.28;;;;;;;2.95;100.00;102020.72;6073483;23;20018;-79
2022/12/27 09:33:40;;;;;;;3.20;2.90;;;;;;;3.88;100.00;102180.75;6120386;23;20658;-79
2022/12/27 09:36:08;;;;;;;2.90;2.80;;;;;;;4.32;100.00;102218.81;6093907;23;20083;-79
2022/12/27 09:38:35;;;;;;;3.20;3.10;;;;;;;3.40;100.00;102058.75;6093097;23;20039;-81
2022/12/27 09:41:36;;;;;;;3.25;3.15;;;;;;;4.51;100.00;102223.94;6066736;23;20018;-80
2022/12/27 09:44:32;;;;;;;3.13;3.03;;;;;;;4.69;100.00;102223.94;6092382;23;20041;-79
2022/12/27 09:47:11;;;;;;;3.05;2.95;;;;;;;4.64;100.00;102199.66;6065683;23;20030;-80
2022/12/27 09:49:41;;;;;;;3.50;3.30;;;;;;;4.56;100.00;102184.09;6068672;23;20020;-80
2022/12/27 09:52:17;;;;;;;3.40;3.28;;;;;;;4.62;100.00;102188.41;6064413;23;20033;-79
2022/12/27 09:54:43;;;;;;;3.50;3.00;;;;;;;5.04;100.00;102229.88;6118274;23;20413;-80
2022/12/27 09:57:18;;;;;;;3.95;3.72;;;;;;;4.93;100.00;102212.56;6069166;23;20031;-80
2022/12/27 09:59:48;;;;;;;3.60;3.30;;;;;;;4.99;100.00;102209.03;6093588;23;20299;-79
2022/12/27 10:02:24;;;;;;;3.25;3.15;;;;;;;4.52;100.00;102108.72;6067391;23;20018;-78
2022/12/27 10:04:53;;;;;;;6.18;3.30;;;;;;;5.08;100.00;102185.59;6116357;23;20490;-81
2022/12/27 10:07:45;;;;;;;9.38;4.03;;;;;;;4.61;100.00;102100.88;6092069;23;20021;-79
2022/12/27 10:10:50;;;;;;;3.22;3.13;;;;;;;5.37;100.00;102206.25;6095205;23;20049;-79
2022/12/27 10:13:41;;;;;;;3.30;3.20;;;;;;;5.66;100.00;102241.66;6052969;23;20015;-79
2022/12/27 10:16:16;;;;;;;3.45;3.33;;;;;;;5.75;100.00;102251.13;6071102;23;20129;-80
2022/12/27 10:19:01;;;;;;;5.32;4.30;;;;;;;4.99;100.00;102150.09;6097388;23;20644;-82
2022/12/27 10:21:29;;;;;;;3.85;3.65;;;;;;;5.95;100.00;102251.91;6072049;23;20067;-80
2022/12/27 10:24:05;;;;;;;4.18;3.95;;;;;;;5.04;100.00;102085.00;6104948;23;20010;-79
2022/12/27 10:26:31;;;;;;;4.35;4.13;;;;;;;5.44;100.00;102167.16;6100833;23;20026;-79
2022/12/27 10:29:12;;;;;;;3.60;3.50;;;;;;;3.66;100.00;101868.34;6140671;23;20033;-79
2022/12/27 10:31:41;;;;;;;3.40;3.30;;;;;;;5.75;100.00;102183.41;6102857;23;20516;-80
2022/12/27 10:34:12;;;;;;;3.75;3.55;;;;;;;4.87;100.00;101996.69;6105709;23;20018;-78
2022/12/27 10:36:40;;;;;;;3.97;3.65;;;;;;;6.37;100.00;102252.41;6107755;23;20254;-81
2022/12/27 10:39:17;;;;;;;3.92;3.72;;;;;;;6.22;100.00;102229.06;6124066;23;20010;-80
2022/12/27 10:42:05;;;;;;;3.75;3.55;;;;;;;6.54;100.00;102254.81;6071809;23;20038;-81
2022/12/27 10:44:32;;;;;;;4.53;4.22;;;;;;;6.11;100.00;102179.63;6123953;23;20025;-79
2022/12/27 10:46:58;;;;;;;9.68;4.50;;;;;;;6.51;100.00;102241.81;6071163;23;20025;-80
2022/12/27 10:49:26;;;;;;;8.68;3.95;;;;;;;6.74;100.00;102261.59;6099606;23;20033;-79
2022/12/27 10:52:05;;;;;;;3.80;3.60;;;;;;;3.87;100.00;101780.81;6070048;23;20034;-81
2022/12/27 10:54:31;;;;;;;3.95;3.65;;;;;;;6.81;100.00;102223.22;6128824;23;20524;-81
2022/12/27 10:57:24;;;;;;;3.53;3.42;;;;;;;6.55;100.00;102190.47;6070260;23;21327;-81
2022/12/27 11:00:13;;;;;;;;;;;;;;;6.94;100.00;102257.00;6111533;23;20297;-81
2022/12/27 11:02:57;;;;;;;15.35;14.45;;;;;;;6.41;100.00;102128.03;6073837;23;20066;-79
2022/12/27 11:05:32;;;;;;;4.20;3.80;;;;;;;7.14;100.00;102219.34;6035327;23;20100;-80
2022/12/27 11:08:17;;;;;;;4.20;3.90;;;;;;;5.95;100.00;102019.09;6096242;23;20031;-81
2022/12/27 11:10:43;;;;;;;3.97;3.78;;;;;;;6.86;100.00;102140.53;6123123;23;20174;-81
2022/12/27 11:13:17;;;;;;;4.32;4.05;;;;;;;6.31;100.00;102019.53;6068870;23;20021;-80
2022/12/27 11:15:54;;;;;;;7.20;4.05;;;;;;;6.48;100.00;102097.56;6102138;23;20025;-80
2022/12/27 11:18:26;;;;;;;5.22;4.72;;;;;;;6.93;100.00;102181.31;6097154;23;20486;-82
2022/12/27 11:20:56;;;;;;;3.72;3.58;;;;;;;6.29;100.00;102092.53;6098029;23;20080;-80
2022/12/27 11:23:28;;;;;;;5.35;4.95;;;;;;;7.00;100.00;102224.75;6093675;23;20567;-80
2022/12/27 11:26:00;;;;;;;5.82;5.15;;;;;;;6.87;100.00;102228.38;6099371;23;20202;-79
2022/12/27 11:28:37;;;;;;;23.88;5.68;;;;;;;6.63;100.00;102213.88;6101420;23;20033;-80
2022/12/27 11:31:16;;;;;;;6.88;5.07;;;;;;;6.85;100.00;102240.56;6073316;23;20100;-80
2022/12/27 11:33:52;;;;;;;5.90;4.70;;;;;;;6.74;100.00;102210.25;6074732;23;20495;-79
2022/12/27 11:36:26;;;;;;;4.50;4.20;;;;;;;6.71;100.00;102189.41;6129577;23;20435;-80
2022/12/27 11:38:53;;;;;;;5.10;4.65;;;;;;;7.17;100.00;102242.78;6069348;23;20029;-80
2022/12/27 11:41:30;;;;;;;5.75;5.25;;;;;;;6.63;100.00;102143.44;6107487;23;20437;-81
2022/12/27 11:44:09;;;;;;;9.68;4.32;;;;;;;6.19;100.00;102064.88;6078597;23;20035;-81
2022/12/27 11:46:58;;;;;;;4.57;4.10;;;;;;;6.41;100.00;102108.94;6111176;23;20111;-79
2022/12/27 11:49:35;;;;;;;4.05;3.83;;;;;;;6.53;100.00;102147.91;6101225;23;20276;-81
2022/12/27 11:52:11;;;;;;;11.00;3.97;;;;;;;6.62;100.00;102147.81;6103888;23;20049;-80
2022/12/27 11:54:56;;;;;;;4.63;4.00;;;;;;;7.23;100.00;102236.63;6076193;23;20028;-80
2022/12/27 11:57:59;;;;;;;4.75;4.03;;;;;;;7.26;100.00;102231.38;6130109;23;20013;-81
2022/12/27 12:00:31;;;;;;;;;;;;;;;7.30;100.00;102233.06;6100324;23;20035;-80
2022/12/27 12:03:22;;;;;;;4.07;3.78;;;;;;;7.29;100.00;102223.47;6095430;23;19973;-80
2022/12/27 12:06:23;;;;;;;3.92;3.72;;;;;;;7.29;100.00;102210.41;6082888;23;20053;-81
2022/12/27 12:09:20;;;;;;;6.70;4.85;;;;;;;7.09;100.00;102216.78;6112561;23;20122;-81
2022/12/27 12:12:07;;;;;;;3.97;3.72;;;;;;;7.33;100.00;102210.34;6079624;23;20342;-83
2022/12/27 12:15:01;;;;;;;4.03;3.83;;;;;;;7.34;100.00;102216.47;6103795;23;20495;-80
2022/12/27 12:17:38;;;;;;;4.40;4.20;;;;;;;7.40;100.00;102208.53;6075972;23;20069;-80
2022/12/27 12:20:36;;;;;;;3.90;3.70;;;;;;;7.38;100.00;102202.47;6097474;23;20510;-81
2022/12/27 12:23:21;;;;;;;4.30;4.03;;;;;;;7.28;100.00;102206.09;6101865;23;20053;-82
2022/12/27 12:26:15;;;;;;;10.55;4.13;;;;;;;7.33;100.00;102197.28;6100795;23;20085;-80
2022/12/27 12:28:41;;;;;;;4.70;4.30;;;;;;;7.35;100.00;102205.09;6081264;23;20087;-80
2022/12/27 12:31:31;;;;;;;3.95;3.75;;;;;;;7.42;100.00;102201.53;6075483;23;20027;-81
2022/12/27 12:34:17;;;;;;;4.03;3.83;;;;;;;7.06;100.00;102154.19;6091802;23;20069;-81
2022/12/27 12:37:05;;;;;;;6.85;3.65;;;;;;;7.34;100.00;102196.41;6099924;23;20033;-80
2022/12/27 12:39:53;;;;;;;7.05;4.35;;;;;;;7.38;100.00;102192.03;6087989;23;20032;-79
2022/12/27 12:42:46;;;;;;;3.75;3.58;;;;;;;6.93;100.00;102139.56;6113756;23;20029;-81
2022/12/27 12:45:30;;;;;;;5.40;5.10;;;;;;;6.56;100.00;102061.81;6084201;23;20434;-82
2022/12/27 12:48:24;;;;;;;8.63;4.00;;;;;;;7.31;100.00;102186.00;6131507;23;20024;-78
2022/12/27 12:51:13;;;;;;;4.35;4.05;;;;;;;7.34;100.00;102191.19;6107442;23;20045;-79
2022/12/27 12:54:00;;;;;;;4.57;4.30;;;;;;;7.37;100.00;102192.88;6115153;23;20088;-83
2022/12/27 12:57:03;;;;;;;4.72;4.10;;;;;;;7.17;100.00;102154.00;6104659;23;20026;-82
2022/12/27 13:00:05;;;;;;;4.00;3.80;;;;;;;7.12;100.00;102169.75;6107008;23;20024;-82
2022/12/27 13:03:03;;;;;;;4.32;3.90;;;;;;;7.42;100.00;102183.25;6081431;23;20018;-81
2022/12/27 13:06:05;;;;;;;3.92;3.72;;;;;;;7.38;100.00;102177.19;6100532;23;20075;-80
2022/12/27 13:08:44;;;;;;;4.20;4.00;;;;;;;7.36;100.00;102171.13;6067861;23;20025;-82
2022/12/27 13:11:20;;;;;;;4.20;3.88;;;;;;;7.34;100.00;102159.00;6153081;23;20286;-82
2022/12/27 13:14:08;;;;;;;4.03;3.83;;;;;;;7.36;100.00;102158.09;6101388;23;20294;-82
2022/12/27 13:16:51;;;;;;;3.78;3.60;;;;;;;7.15;100.00;102129.69;6152478;23;20037;-81
2022/12/27 13:19:21;;;;;;;;;;;;;;;7.27;100.00;102146.91;6112253;23;20023;-81
2022/12/27 13:22:23;;;;;;;4.63;4.18;;;;;;;7.29;100.00;102142.53;6119786;23;19917;-81
2022/12/27 13:25:12;;;;;;;7.25;5.70;;;;;;;7.28;100.00;102144.28;6085383;23;20014;-80
2022/12/27 13:27:50;;;;;;;5.95;5.43;;;;;;;7.25;100.00;102133.00;6109758;23;20571;-80
2022/12/27 13:30:39;;;;;;;4.45;4.13;;;;;;;7.08;100.00;102118.47;6082590;23;20066;-80
2022/12/27 13:33:20;;;;;;;4.13;3.92;;;;;;;6.94;100.00;102091.72;6124610;23;20122;-81
2022/12/27 13:36:02;;;;;;;4.28;4.00;;;;;;;7.21;100.00;102131.34;6093038;23;20060;-82
2022/12/27 13:39:00;;;;;;;4.28;3.90;;;;;;;5.92;100.00;101902.72;6124841;23;20060;-81
2022/12/27 13:41:44;;;;;;;4.00;3.80;;;;;;;7.26;100.00;102121.69;6116057;23;20029;-79
2022/12/27 13:44:29;;;;;;;4.00;3.80;;;;;;;7.18;100.00;102124.44;6102476;23;20045;-81
2022/12/27 13:47:02;;;;;;;4.10;3.90;;;;;;;7.17;100.00;102130.50;6106945;23;20046;-82
2022/12/27 13:49:50;;;;;;;4.60;4.35;;;;;;;7.17;100.00;102133.13;6102607;23;20021;-81
2022/12/27 13:52:58;;;;;;;4.25;4.00;;;;;;;7.15;100.00;102117.47;6079926;23;20026;-82
2022/12/27 13:55:25;;;;;;;5.78;5.28;;;;;;;7.18;100.00;102127.88;6155187;23;20064;-81
2022/12/27 13:58:12;;;;;;;5.78;5.32;;;;;;;7.13;100.00;102116.63;6090196;23;20022;-80
2022/12/27 14:01:13;;;;;;;7.63;4.80;;;;;;;5.99;100.00;101909.63;6146505;23;20032;-82
2022/12/27 14:04:13;;;;;;;4.68;4.47;;;;;;;7.22;100.00;102109.53;6097589;23;20014;-82